createdAt,value
2023-01-26T00:04:29.811Z,101083.27
2023-01-26T00:07:22.562Z,101079.38
2023-01-26T00:13:45.017Z,101075.30
2023-01-26T00:16:30.131Z,101082.58
2023-01-26T00:19:29.620Z,101081.57
2023-01-26T00:22:26.902Z,101074.51
2023-01-26T00:25:07.509Z,101072.95
2023-01-26T00:30:59.585Z,101072.11
2023-01-26T00:33:31.573Z,101072.77
2023-01-26T00:36:30.707Z,101070.11
2023-01-26T00:39:26.156Z,101064.78
2023-01-26T00:42:22.444Z,101064.20
2023-01-26T00:45:21.211Z,101066.20
2023-01-26T00:48:13.072Z,101058.71
2023-01-26T00:51:08.558Z,101062.34
2023-01-26T00:54:04.720Z,101060.71
2023-01-26T00:56:54.451Z,101056.30
2023-01-26T00:59:37.810Z,101061.49
2023-01-26T01:02:22.917Z,101060.05
2023-01-26T01:05:23.248Z,101059.48
2023-01-26T01:08:23.119Z,101061.53
2023-01-26T01:11:28.690Z,101063.74
2023-01-26T01:14:32.238Z,101062.85
2023-01-26T01:17:26.871Z,101057.31
2023-01-26T01:20:33.083Z,101055.66
2023-01-26T01:23:11.503Z,101056.11
2023-01-26T01:26:07.221Z,101055.50
2023-01-26T01:29:10.752Z,101052.88
2023-01-26T01:32:14.705Z,101051.77
2023-01-26T01:35:32.436Z,101055.49
2023-01-26T01:38:24.798Z,101052.29
2023-01-26T01:41:27.394Z,101050.69
2023-01-26T01:44:30.754Z,101043.45
2023-01-26T01:47:34.615Z,101041.70
2023-01-26T01:50:33.217Z,101038.10
2023-01-26T01:53:29.837Z,101035.45
2023-01-26T01:56:33.403Z,101028.86
2023-01-26T01:59:31.792Z,101021.41
2023-01-26T02:02:26.330Z,101024.05
2023-01-26T02:05:13.639Z,101018.86
2023-01-26T02:08:08.938Z,101017.39
2023-01-26T02:11:20.426Z,101016.48
2023-01-26T02:13:53.170Z,101008.17
2023-01-26T02:17:04.887Z,101004.64
2023-01-26T02:20:08.947Z,101006.16
2023-01-26T02:23:20.641Z,100999.94
2023-01-26T02:26:15.279Z,100993.34
2023-01-26T02:29:19.169Z,100996.27
2023-01-26T02:32:37.368Z,100994.80
2023-01-26T02:35:36.440Z,100989.11
2023-01-26T02:38:41.697Z,100987.94
2023-01-26T02:41:55.387Z,100978.95
2023-01-26T02:44:51.426Z,100977.54
2023-01-26T02:47:46.411Z,100971.05
2023-01-26T02:50:53.991Z,100967.48
2023-01-26T02:53:35.800Z,100960.40
2023-01-26T02:56:29.031Z,100956.97
2023-01-26T02:59:36.955Z,100949.90
2023-01-26T03:02:46.036Z,100950.59
2023-01-26T03:05:54.714Z,100954.02
2023-01-26T03:08:50.778Z,100951.27
2023-01-26T03:11:55.824Z,100949.71
2023-01-26T03:14:46.759Z,100946.10
2023-01-26T03:18:33.591Z,100943.01
2023-01-26T03:21:30.400Z,100931.58
2023-01-26T03:24:42.198Z,100927.20
2023-01-26T03:27:44.915Z,100925.52
2023-01-26T03:30:55.966Z,100926.53
2023-01-26T03:34:07.395Z,100921.31
2023-01-26T03:40:40.411Z,100906.63
2023-01-26T03:43:49.300Z,100905.23
2023-01-26T03:46:59.684Z,100903.98
2023-01-26T03:50:09.355Z,100901.42
2023-01-26T03:53:35.632Z,100892.48
2023-01-26T03:56:34.071Z,100893.76
2023-01-26T03:59:46.934Z,100896.36
2023-01-26T04:02:58.793Z,100894.80
2023-01-26T04:06:15.776Z,100889.12
2023-01-26T04:09:09.568Z,100890.31
2023-01-26T04:12:02.959Z,100890.64
2023-01-26T04:15:15.186Z,100887.00
2023-01-26T04:18:09.007Z,100888.45
2023-01-26T04:21:20.716Z,100888.21
2023-01-26T04:24:17.967Z,100887.01
2023-01-26T04:27:16.895Z,100886.67
2023-01-26T04:33:21.425Z,100885.64
2023-01-26T04:36:14.968Z,100886.95
2023-01-26T04:39:11.834Z,100882.25
2023-01-26T04:42:12.113Z,100881.42
2023-01-26T04:45:13.787Z,100877.73
2023-01-26T04:48:06.656Z,100876.99
2023-01-26T04:51:05.093Z,100872.62
2023-01-26T04:54:13.056Z,100867.81
2023-01-26T04:57:15.814Z,100863.51
2023-01-26T05:00:12.760Z,100863.98
2023-01-26T05:03:07.661Z,100865.27
2023-01-26T05:05:49.219Z,100861.98
2023-01-26T05:08:50.770Z,100863.71
2023-01-26T05:11:45.743Z,100854.27
2023-01-26T05:14:53.691Z,100854.59
2023-01-26T05:17:57.452Z,100850.95
2023-01-26T05:21:07.611Z,100852.99
2023-01-26T05:24:02.999Z,100851.05
2023-01-26T05:27:13.581Z,100849.35
2023-01-26T05:30:20.789Z,100850.42
2023-01-26T05:33:13.310Z,100850.67
2023-01-26T05:36:14.921Z,100847.26
2023-01-26T05:39:07.213Z,100848.30
2023-01-26T05:42:24.233Z,100846.51
2023-01-26T05:45:31.821Z,100844.66
2023-01-26T05:48:30.649Z,100850.19
2023-01-26T05:51:05.293Z,100855.86
2023-01-26T05:54:07.434Z,100852.24
2023-01-26T05:57:08.881Z,100852.73
2023-01-26T06:00:01.670Z,100846.04
2023-01-26T06:03:05.516Z,100837.07
2023-01-26T06:06:20.462Z,100835.39
2023-01-26T06:09:37.884Z,100834.69
2023-01-26T06:12:51.497Z,100831.73
2023-01-26T06:15:56.669Z,100828.47
2023-01-26T06:19:04.978Z,100831.09
2023-01-26T06:22:12.277Z,100822.61
2023-01-26T06:25:24.063Z,100823.29
2023-01-26T06:28:19.640Z,100826.22
2023-01-26T06:30:52.004Z,100826.55
2023-01-26T06:33:25.904Z,100822.56
2023-01-26T06:35:57.168Z,100826.05
2023-01-26T06:38:27.507Z,100830.80
2023-01-26T06:41:03.307Z,100830.85
2023-01-26T06:43:35.852Z,100830.73
2023-01-26T06:46:07.798Z,100832.84
2023-01-26T06:48:39.426Z,100835.44
2023-01-26T06:51:47.279Z,100832.15
2023-01-26T06:54:20.140Z,100830.44
2023-01-26T06:57:11.942Z,100826.86
2023-01-26T06:59:56.194Z,100825.86
2023-01-26T07:02:41.369Z,100827.11
2023-01-26T07:05:12.835Z,100829.88
2023-01-26T07:07:44.308Z,100837.14
2023-01-26T07:10:16.241Z,100839.23
2023-01-26T07:12:47.232Z,100836.54
2023-01-26T07:15:17.893Z,100836.63
2023-01-26T07:17:49.925Z,100839.58
2023-01-26T07:20:20.513Z,100837.81
2023-01-26T07:22:51.044Z,100835.74
2023-01-26T07:25:21.865Z,100840.94
2023-01-26T07:27:58.258Z,100843.02
2023-01-26T07:30:31.304Z,100841.32
2023-01-26T07:33:04.178Z,100833.70
2023-01-26T07:35:34.601Z,100826.56
2023-01-26T07:38:08.629Z,100825.44
2023-01-26T07:40:39.756Z,100826.27
2023-01-26T07:43:12.386Z,100825.79
2023-01-26T07:45:55.797Z,100819.54
2023-01-26T07:48:26.759Z,100817.47
2023-01-26T07:50:58.758Z,100817.83
2023-01-26T07:53:34.297Z,100820.54
2023-01-26T07:56:13.524Z,100828.13
2023-01-26T07:58:45.069Z,100824.71
2023-01-26T08:01:16.945Z,100828.91
2023-01-26T08:03:53.484Z,100832.80
2023-01-26T08:06:25.449Z,100832.85
2023-01-26T08:08:56.233Z,100831.92
2023-01-26T08:11:26.952Z,100832.27
2023-01-26T08:13:59.880Z,100832.29
2023-01-26T08:16:30.493Z,100827.84
2023-01-26T08:19:01.374Z,100833.66
2023-01-26T08:21:31.822Z,100828.83
2023-01-26T08:24:03.836Z,100835.05
2023-01-26T08:26:37.357Z,100835.21
2023-01-26T08:29:07.849Z,100833.77
2023-01-26T08:31:38.798Z,100835.05
2023-01-26T08:34:09.388Z,100829.87
2023-01-26T08:36:42.182Z,100827.30
2023-01-26T08:39:13.460Z,100827.71
2023-01-26T08:41:44.113Z,100826.77
2023-01-26T08:44:14.811Z,100822.84
2023-01-26T08:46:46.234Z,100824.30
2023-01-26T08:49:16.825Z,100825.73
2023-01-26T08:51:49.134Z,100827.11
2023-01-26T08:54:20.305Z,100829.86
2023-01-26T08:56:50.732Z,100827.95
2023-01-26T08:59:28.954Z,100832.89
2023-01-26T09:02:00.036Z,100830.83
2023-01-26T09:04:30.748Z,100827.90
2023-01-26T09:07:01.139Z,100832.46
2023-01-26T09:09:32.968Z,100836.60
2023-01-26T09:12:04.588Z,100838.38
2023-01-26T09:14:35.631Z,100837.97
2023-01-26T09:17:05.968Z,100836.80
2023-01-26T09:19:36.489Z,100837.14
2023-01-26T09:22:06.920Z,100839.75
2023-01-26T09:24:37.639Z,100835.41
2023-01-26T09:27:08.842Z,100829.83
2023-01-26T09:29:39.157Z,100824.83
2023-01-26T09:32:15.259Z,100827.21
2023-01-26T09:34:46.310Z,100826.50
2023-01-26T09:37:21.493Z,100827.13
2023-01-26T09:39:51.876Z,100822.20
2023-01-26T09:42:44.973Z,100818.44
2023-01-26T09:45:28.622Z,100815.55
2023-01-26T09:48:18.922Z,100813.05
2023-01-26T09:50:56.841Z,100811.95
2023-01-26T09:53:39.747Z,100811.66
2023-01-26T09:56:17.109Z,100810.18
2023-01-26T09:58:51.070Z,100809.30
2023-01-26T10:01:38.363Z,100807.23
2023-01-26T10:04:19.744Z,100804.73
2023-01-26T10:06:54.407Z,100800.08
2023-01-26T10:09:48.412Z,100794.73
2023-01-26T10:12:24.716Z,100790.61
2023-01-26T10:15:03.924Z,100787.14
2023-01-26T10:17:39.837Z,100787.73
2023-01-26T10:20:19.518Z,100786.79
2023-01-26T10:22:53.394Z,100790.61
2023-01-26T10:25:31.775Z,100788.60
2023-01-26T10:28:03.424Z,100788.16
2023-01-26T10:30:34.164Z,100786.27
2023-01-26T10:33:15.639Z,100785.61
2023-01-26T10:35:47.758Z,100779.87
2023-01-26T10:38:45.313Z,100775.89
2023-01-26T10:41:44.438Z,100774.92
2023-01-26T10:44:34.791Z,100773.11
2023-01-26T10:47:18.535Z,100772.15
2023-01-26T10:49:48.888Z,100772.96
2023-01-26T10:52:23.799Z,100774.61
2023-01-26T10:55:11.102Z,100777.32
2023-01-26T10:57:46.614Z,100780.46
2023-01-26T11:00:26.279Z,100783.40
2023-01-26T11:03:08.072Z,100782.52
2023-01-26T11:05:38.603Z,100779.16
2023-01-26T11:08:35.562Z,100777.33
2023-01-26T11:11:10.798Z,100771.67
2023-01-26T11:13:45.711Z,100772.04
2023-01-26T11:16:43.098Z,100773.45
2023-01-26T11:19:21.498Z,100766.71
2023-01-26T11:22:05.747Z,100761.54
2023-01-26T11:24:42.646Z,100751.07
2023-01-26T11:27:32.576Z,100747.66
2023-01-26T11:30:20.659Z,100744.84
2023-01-26T11:33:05.930Z,100737.12
2023-01-26T11:35:48.851Z,100741.40
2023-01-26T11:38:37.375Z,100741.43
2023-01-26T11:41:29.463Z,100738.20
2023-01-26T11:44:31.078Z,100735.27
2023-01-26T11:47:17.835Z,100737.02
2023-01-26T11:50:10.648Z,100739.59
2023-01-26T11:53:00.280Z,100730.13
2023-01-26T11:55:50.763Z,100727.22
2023-01-26T11:58:34.225Z,100725.23
2023-01-26T12:01:10.837Z,100724.88
2023-01-26T12:03:47.370Z,100720.85
2023-01-26T12:06:23.376Z,100717.09
2023-01-26T12:08:59.657Z,100713.45
2023-01-26T12:11:36.360Z,100711.61
2023-01-26T12:14:20.811Z,100710.64
2023-01-26T12:17:20.081Z,100709.21
2023-01-26T12:20:00.200Z,100708.55
2023-01-26T12:22:34.868Z,100705.60
2023-01-26T12:25:21.318Z,100702.18
2023-01-26T12:27:57.612Z,100696.33
2023-01-26T12:30:46.415Z,100702.33
2023-01-26T12:33:17.300Z,100695.69
2023-01-26T12:36:28.544Z,100697.80
2023-01-26T12:39:10.194Z,100695.16
2023-01-26T12:42:00.682Z,100699.96
2023-01-26T12:44:40.010Z,100690.63
2023-01-26T12:47:25.558Z,100689.60
2023-01-26T12:50:01.992Z,100687.58
2023-01-26T12:52:39.141Z,100685.02
2023-01-26T12:55:17.516Z,100690.01
2023-01-26T12:57:53.602Z,100687.03
2023-01-26T13:00:33.158Z,100684.64
2023-01-26T13:03:14.850Z,100683.11
2023-01-26T13:05:58.879Z,100680.68
2023-01-26T13:09:04.591Z,100677.74
2023-01-26T13:11:47.102Z,100680.48
2023-01-26T13:14:34.325Z,100677.48
2023-01-26T13:17:49.957Z,100679.36
2023-01-26T13:20:52.137Z,100682.55
2023-01-26T13:23:54.988Z,100677.20
2023-01-26T13:26:50.709Z,100673.96
2023-01-26T13:29:36.132Z,100673.15
2023-01-26T13:32:58.072Z,100675.30
2023-01-26T13:35:31.467Z,100682.12
2023-01-26T13:38:12.868Z,100682.13
2023-01-26T13:40:46.282Z,100684.41
2023-01-26T13:43:27.527Z,100682.35
2023-01-26T13:46:21.083Z,100675.43
2023-01-26T13:48:54.654Z,100676.13
2023-01-26T13:51:27.727Z,100676.84
2023-01-26T13:54:14.857Z,100672.89
2023-01-26T13:57:04.146Z,100666.16
2023-01-26T13:59:34.771Z,100670.00
2023-01-26T14:02:12.252Z,100664.78
2023-01-26T14:04:57.726Z,100664.14
2023-01-26T14:07:32.085Z,100662.92
2023-01-26T14:10:03.596Z,100659.02
2023-01-26T14:12:44.806Z,100652.90
2023-01-26T14:15:26.239Z,100654.05
2023-01-26T14:18:00.543Z,100654.39
2023-01-26T14:20:33.818Z,100654.94
2023-01-26T14:23:18.852Z,100659.06
2023-01-26T14:25:58.064Z,100657.24
2023-01-26T14:28:32.179Z,100657.60
2023-01-26T14:31:09.443Z,100660.55
2023-01-26T14:33:42.185Z,100664.89
2023-01-26T14:36:19.440Z,100666.63
2023-01-26T14:38:52.975Z,100661.10
2023-01-26T14:41:26.760Z,100665.89
2023-01-26T14:44:01.908Z,100665.38
2023-01-26T14:46:40.028Z,100663.49
2023-01-26T14:49:16.044Z,100666.76
2023-01-26T14:52:04.326Z,100662.25
2023-01-26T14:54:39.653Z,100658.26
2023-01-26T14:57:13.731Z,100652.53
2023-01-26T14:59:44.489Z,100650.30
2023-01-26T15:02:21.895Z,100650.49
2023-01-26T15:04:56.263Z,100652.01
2023-01-26T15:07:48.993Z,100651.47
2023-01-26T15:10:35.047Z,100648.10
2023-01-26T15:13:19.686Z,100643.86
2023-01-26T15:16:04.704Z,100647.02
2023-01-26T15:18:36.842Z,100647.82
2023-01-26T15:21:16.051Z,100648.59
2023-01-26T15:23:50.760Z,100653.40
2023-01-26T15:26:33.985Z,100657.16
2023-01-26T15:29:19.292Z,100659.43
2023-01-26T15:31:54.723Z,100664.73
2023-01-26T15:34:36.842Z,100660.89
2023-01-26T15:37:30.026Z,100662.89
2023-01-26T15:40:01.609Z,100665.95
2023-01-26T15:42:33.345Z,100664.76
2023-01-26T15:45:05.167Z,100664.81
2023-01-26T15:47:35.584Z,100662.78
2023-01-26T15:50:09.514Z,100662.13
2023-01-26T15:52:41.847Z,100661.46
2023-01-26T15:58:10.406Z,100664.34
2023-01-26T16:00:45.286Z,100666.79
2023-01-26T16:03:20.631Z,100665.91
2023-01-26T16:05:54.118Z,100665.91
2023-01-26T16:08:24.499Z,100659.35
2023-01-26T16:10:56.897Z,100663.30
2023-01-26T16:13:27.369Z,100656.83
2023-01-26T16:16:14.347Z,100657.24
2023-01-26T16:18:48.670Z,100657.96
2023-01-26T16:21:22.480Z,100665.35
2023-01-26T16:24:05.610Z,100662.46
2023-01-26T16:26:38.816Z,100663.54
2023-01-26T16:29:14.138Z,100661.98
2023-01-26T16:31:46.148Z,100664.35
2023-01-26T16:34:18.299Z,100662.30
2023-01-26T16:36:54.967Z,100663.32
2023-01-26T16:39:28.971Z,100661.90
2023-01-26T16:42:01.302Z,100665.16
2023-01-26T16:44:35.888Z,100670.55
2023-01-26T16:47:08.337Z,100670.17
2023-01-26T16:49:39.125Z,100666.84
2023-01-26T16:52:12.634Z,100667.81
2023-01-26T16:54:45.560Z,100670.40
2023-01-26T16:57:15.878Z,100667.41
2023-01-26T16:59:52.558Z,100668.08
2023-01-26T17:02:41.233Z,100669.77
2023-01-26T17:05:18.059Z,100677.02
2023-01-26T17:07:51.839Z,100676.67
2023-01-26T17:10:24.304Z,100672.20
2023-01-26T17:12:55.503Z,100676.67
2023-01-26T17:15:28.971Z,100679.71
2023-01-26T17:18:02.833Z,100678.59
2023-01-26T17:20:33.531Z,100684.20
2023-01-26T17:23:06.030Z,100685.05
2023-01-26T17:25:40.603Z,100683.66
2023-01-26T17:28:11.107Z,100680.16
2023-01-26T17:30:48.138Z,100682.89
2023-01-26T17:33:21.801Z,100681.97
2023-01-26T17:35:59.472Z,100684.00
2023-01-26T17:38:34.509Z,100677.55
2023-01-26T17:41:05.300Z,100682.45
2023-01-26T17:43:38.573Z,100679.31
2023-01-26T17:46:12.349Z,100682.67
2023-01-26T17:48:45.602Z,100682.80
2023-01-26T17:51:23.214Z,100680.83
2023-01-26T17:53:54.385Z,100683.38
2023-01-26T17:56:25.024Z,100676.09
2023-01-26T17:59:02.371Z,100673.30
2023-01-26T18:01:34.971Z,100670.02
2023-01-26T18:04:05.492Z,100671.04
2023-01-26T18:06:38.415Z,100670.85
2023-01-26T18:09:08.799Z,100670.52
2023-01-26T18:11:40.552Z,100671.35
2023-01-26T18:14:10.963Z,100672.89
2023-01-26T18:16:41.309Z,100675.09
2023-01-26T18:19:12.474Z,100678.16
2023-01-26T18:21:44.159Z,100676.44
2023-01-26T18:24:15.224Z,100677.64
2023-01-26T18:26:45.837Z,100680.55
2023-01-26T18:29:19.244Z,100684.70
2023-01-26T18:31:53.706Z,100680.91
2023-01-26T18:34:28.426Z,100678.50
2023-01-26T18:37:00.109Z,100677.63
2023-01-26T18:39:31.313Z,100681.08
2023-01-26T18:42:04.267Z,100685.52
2023-01-26T18:44:35.680Z,100687.05
2023-01-26T18:47:08.171Z,100686.71
2023-01-26T18:49:40.892Z,100687.92
2023-01-26T18:52:12.157Z,100692.02
2023-01-26T18:57:28.588Z,100694.00
2023-01-26T18:59:59.522Z,100697.11
2023-01-26T19:02:33.559Z,100700.02
2023-01-26T19:05:04.586Z,100700.19
2023-01-26T19:07:44.617Z,100703.95
2023-01-26T19:13:00.928Z,100707.08
2023-01-26T19:15:32.111Z,100710.25
2023-01-26T19:18:03.982Z,100711.84
2023-01-26T19:20:34.554Z,100710.30
2023-01-26T19:23:06.891Z,100713.04
2023-01-26T19:25:42.109Z,100713.16
2023-01-26T19:28:15.089Z,100709.73
2023-01-26T19:30:46.715Z,100713.01
2023-01-26T19:33:29.395Z,100717.11
2023-01-26T19:36:06.969Z,100711.20
2023-01-26T19:38:41.985Z,100717.26
2023-01-26T19:45:25.682Z,100709.95
2023-01-26T19:48:32.808Z,100708.19
2023-01-26T19:55:09.403Z,100707.07
2023-01-26T19:58:05.498Z,100703.34
2023-01-26T20:03:52.370Z,100695.51
2023-01-26T20:06:44.236Z,100700.90
2023-01-26T20:09:58.358Z,100698.05
2023-01-26T20:16:31.518Z,100692.97
2023-01-26T20:19:48.562Z,100697.69
2023-01-26T20:22:26.208Z,100697.08
2023-01-26T20:28:36.426Z,100696.80
2023-01-26T20:31:19.281Z,100694.05
2023-01-26T20:33:53.340Z,100692.29
2023-01-26T20:36:33.388Z,100695.49
2023-01-26T20:39:04.724Z,100696.32
2023-01-26T20:44:31.985Z,100696.95
2023-01-26T20:47:02.836Z,100698.60
2023-01-26T20:49:40.536Z,100699.05
2023-01-26T20:52:12.139Z,100694.52
2023-01-26T20:54:42.668Z,100694.95
2023-01-26T20:57:16.388Z,100695.73
2023-01-26T20:59:49.090Z,100693.59
2023-01-26T21:02:23.341Z,100690.97
2023-01-26T21:04:54.595Z,100688.66
2023-01-26T21:07:28.352Z,100687.41
2023-01-26T21:10:02.073Z,100689.98
2023-01-26T21:12:34.567Z,100691.30
2023-01-26T21:15:05.804Z,100693.65
2023-01-26T21:17:39.739Z,100689.79
2023-01-26T21:20:24.131Z,100687.00
2023-01-26T21:22:59.866Z,100686.45
2023-01-26T21:25:34.884Z,100687.33
2023-01-26T21:28:14.040Z,100683.47
2023-01-26T21:30:44.834Z,100683.44
2023-01-26T21:33:17.922Z,100683.39
2023-01-26T21:35:56.207Z,100682.64
2023-01-26T21:38:27.582Z,100686.95
2023-01-26T21:41:05.664Z,100682.46
2023-01-26T21:43:36.679Z,100686.79
2023-01-26T21:46:07.878Z,100685.90
2023-01-26T21:48:42.767Z,100679.34
2023-01-26T21:51:31.655Z,100680.67
2023-01-26T21:54:02.467Z,100679.06
2023-01-26T21:56:33.917Z,100671.31
2023-01-26T21:59:12.241Z,100675.45
2023-01-26T22:01:45.581Z,100673.19
2023-01-26T22:04:25.635Z,100674.76
2023-01-26T22:06:59.769Z,100671.64
2023-01-26T22:09:41.656Z,100666.64
2023-01-26T22:12:12.168Z,100667.65
2023-01-26T22:14:42.492Z,100665.09
2023-01-26T22:17:15.232Z,100666.50
2023-01-26T22:19:49.625Z,100668.36
2023-01-26T22:22:21.677Z,100666.60
2023-01-26T22:24:53.576Z,100662.23
2023-01-26T22:27:23.996Z,100663.95
2023-01-26T22:29:56.364Z,100659.94
2023-01-26T22:32:27.699Z,100658.02
2023-01-26T22:34:59.188Z,100660.92
2023-01-26T22:37:29.627Z,100659.70
2023-01-26T22:40:00.868Z,100662.27
2023-01-26T22:42:39.817Z,100665.00
2023-01-26T22:45:12.712Z,100666.72
2023-01-26T22:47:43.643Z,100663.77
2023-01-26T22:50:16.147Z,100663.05
2023-01-26T22:52:48.944Z,100659.23
2023-01-26T22:55:25.030Z,100656.46
2023-01-26T22:57:55.409Z,100660.90
2023-01-26T23:00:27.475Z,100662.60
2023-01-26T23:03:09.544Z,100661.70
2023-01-26T23:05:40.165Z,100661.31
2023-01-26T23:08:10.682Z,100662.11
2023-01-26T23:10:41.524Z,100659.30
2023-01-26T23:13:11.844Z,100660.66
2023-01-26T23:15:45.711Z,100661.72
2023-01-26T23:18:20.762Z,100663.73
2023-01-26T23:20:58.552Z,100663.20
2023-01-26T23:23:30.575Z,100662.14
2023-01-26T23:26:01.873Z,100658.65
2023-01-26T23:28:34.149Z,100657.81
2023-01-26T23:31:05.858Z,100655.44
2023-01-26T23:33:37.403Z,100657.63
2023-01-26T23:36:10.433Z,100653.14
2023-01-26T23:38:46.352Z,100654.36
2023-01-26T23:41:16.688Z,100655.05
2023-01-26T23:43:47.557Z,100657.96
2023-01-26T23:46:18.734Z,100657.48
2023-01-26T23:48:50.585Z,100661.61
2023-01-26T23:51:22.953Z,100660.91
2023-01-26T23:53:56.980Z,100662.13
2023-01-26T23:56:27.913Z,100657.47
2023-01-26T23:58:59.429Z,100659.86
